sensor_id;sensor_type;location;lat;lon;timestamp;temperature;humidity
30648;DHT22;17683;53.360;9.736;2023-07-09T00:02:24;21.10;97.50
30648;DHT22;17683;53.360;9.736;2023-07-09T00:04:50;21.10;97.20
30648;DHT22;17683;53.360;9.736;2023-07-09T00:09:47;21.00;97.20
30648;DHT22;17683;53.360;9.736;2023-07-09T00:12:15;21.00;97.20
30648;DHT22;17683;53.360;9.736;2023-07-09T00:14:41;21.00;97.00
30648;DHT22;17683;53.360;9.736;2023-07-09T00:17:31;21.00;97.10
30648;DHT22;17683;53.360;9.736;2023-07-09T00:19:59;21.00;97.30
30648;DHT22;17683;53.360;9.736;2023-07-09T00:22:25;20.90;97.40
30648;DHT22;17683;53.360;9.736;2023-07-09T00:24:52;20.90;97.40
30648;DHT22;17683;53.360;9.736;2023-07-09T00:27:24;20.80;97.40
30648;DHT22;17683;53.360;9.736;2023-07-09T00:29:51;20.90;97.30
30648;DHT22;17683;53.360;9.736;2023-07-09T00:32:20;20.80;97.40
30648;DHT22;17683;53.360;9.736;2023-07-09T00:34:47;20.80;97.30
30648;DHT22;17683;53.360;9.736;2023-07-09T00:37:17;20.80;97.10
30648;DHT22;17683;53.360;9.736;2023-07-09T00:39:44;20.80;97.40
30648;DHT22;17683;53.360;9.736;2023-07-09T00:42:15;20.80;97.30
30648;DHT22;17683;53.360;9.736;2023-07-09T00:44:44;20.80;97.30
30648;DHT22;17683;53.360;9.736;2023-07-09T00:50:11;20.70;97.60
30648;DHT22;17683;53.360;9.736;2023-07-09T00:52:51;20.60;97.60
30648;DHT22;17683;53.360;9.736;2023-07-09T00:55:22;20.60;97.50
30648;DHT22;17683;53.360;9.736;2023-07-09T00:57:53;20.60;97.70
30648;DHT22;17683;53.360;9.736;2023-07-09T01:00:32;20.50;97.60
30648;DHT22;17683;53.360;9.736;2023-07-09T01:03:02;20.60;97.70
30648;DHT22;17683;53.360;9.736;2023-07-09T01:05:30;20.50;97.80
30648;DHT22;17683;53.360;9.736;2023-07-09T01:07:55;20.50;97.80
30648;DHT22;17683;53.360;9.736;2023-07-09T01:10:23;20.40;97.60
30648;DHT22;17683;53.360;9.736;2023-07-09T01:12:50;20.50;97.70
30648;DHT22;17683;53.360;9.736;2023-07-09T01:15:16;20.50;97.60
30648;DHT22;17683;53.360;9.736;2023-07-09T01:17:42;20.50;97.70
30648;DHT22;17683;53.360;9.736;2023-07-09T01:20:18;20.50;97.60
30648;DHT22;17683;53.360;9.736;2023-07-09T01:22:51;20.50;97.70
30648;DHT22;17683;53.360;9.736;2023-07-09T01:25:21;20.50;97.80
30648;DHT22;17683;53.360;9.736;2023-07-09T01:27:47;20.40;97.70
30648;DHT22;17683;53.360;9.736;2023-07-09T01:30:18;20.30;97.80
30648;DHT22;17683;53.360;9.736;2023-07-09T01:32:48;20.30;98.00
30648;DHT22;17683;53.360;9.736;2023-07-09T01:35:16;20.30;98.00
30648;DHT22;17683;53.360;9.736;2023-07-09T01:37:43;20.30;98.10
30648;DHT22;17683;53.360;9.736;2023-07-09T01:40:11;20.20;98.10
30648;DHT22;17683;53.360;9.736;2023-07-09T01:42:37;20.20;98.20
30648;DHT22;17683;53.360;9.736;2023-07-09T01:45:07;20.10;98.40
30648;DHT22;17683;53.360;9.736;2023-07-09T01:47:36;20.00;98.70
30648;DHT22;17683;53.360;9.736;2023-07-09T01:50:02;19.90;98.80
30648;DHT22;17683;53.360;9.736;2023-07-09T01:52:30;19.90;98.80
30648;DHT22;17683;53.360;9.736;2023-07-09T01:54:57;19.90;98.80
30648;DHT22;17683;53.360;9.736;2023-07-09T01:57:24;19.90;98.90
30648;DHT22;17683;53.360;9.736;2023-07-09T01:59:52;19.90;98.90
30648;DHT22;17683;53.360;9.736;2023-07-09T02:02:20;19.90;98.70
30648;DHT22;17683;53.360;9.736;2023-07-09T02:04:48;19.80;98.90
30648;DHT22;17683;53.360;9.736;2023-07-09T02:07:14;19.80;98.90
30648;DHT22;17683;53.360;9.736;2023-07-09T02:09:40;19.80;99.00
30648;DHT22;17683;53.360;9.736;2023-07-09T02:12:07;19.80;99.10
30648;DHT22;17683;53.360;9.736;2023-07-09T02:14:33;19.70;99.30
30648;DHT22;17683;53.360;9.736;2023-07-09T02:16:59;19.60;99.40
30648;DHT22;17683;53.360;9.736;2023-07-09T02:19:24;19.60;99.60
30648;DHT22;17683;53.360;9.736;2023-07-09T02:21:50;19.60;99.60
30648;DHT22;17683;53.360;9.736;2023-07-09T02:24:15;19.40;99.70
30648;DHT22;17683;53.360;9.736;2023-07-09T02:26:41;19.50;99.70
30648;DHT22;17683;53.360;9.736;2023-07-09T02:29:07;19.50;99.60
30648;DHT22;17683;53.360;9.736;2023-07-09T02:31:33;19.50;99.70
30648;DHT22;17683;53.360;9.736;2023-07-09T02:33:59;19.50;99.60
30648;DHT22;17683;53.360;9.736;2023-07-09T02:36:25;19.50;99.60
30648;DHT22;17683;53.360;9.736;2023-07-09T02:38:51;19.50;99.80
30648;DHT22;17683;53.360;9.736;2023-07-09T02:41:16;19.50;99.60
30648;DHT22;17683;53.360;9.736;2023-07-09T02:43:42;19.50;99.70
30648;DHT22;17683;53.360;9.736;2023-07-09T02:46:08;19.50;99.60
30648;DHT22;17683;53.360;9.736;2023-07-09T02:48:33;19.40;99.50
30648;DHT22;17683;53.360;9.736;2023-07-09T02:50:59;19.40;99.50
30648;DHT22;17683;53.360;9.736;2023-07-09T02:53:27;19.30;99.70
30648;DHT22;17683;53.360;9.736;2023-07-09T02:55:53;19.30;99.70
30648;DHT22;17683;53.360;9.736;2023-07-09T02:58:18;19.30;99.70
30648;DHT22;17683;53.360;9.736;2023-07-09T03:00:44;19.30;99.70
30648;DHT22;17683;53.360;9.736;2023-07-09T03:03:19;19.30;99.80
30648;DHT22;17683;53.360;9.736;2023-07-09T03:05:45;19.20;99.80
30648;DHT22;17683;53.360;9.736;2023-07-09T03:08:11;19.30;99.80
30648;DHT22;17683;53.360;9.736;2023-07-09T03:10:37;19.20;99.90
30648;DHT22;17683;53.360;9.736;2023-07-09T03:13:03;19.20;99.90
30648;DHT22;17683;53.360;9.736;2023-07-09T03:15:29;19.10;99.90
30648;DHT22;17683;53.360;9.736;2023-07-09T03:17:54;19.10;99.90
30648;DHT22;17683;53.360;9.736;2023-07-09T03:20:20;19.00;99.90
30648;DHT22;17683;53.360;9.736;2023-07-09T03:22:45;19.10;99.90
30648;DHT22;17683;53.360;9.736;2023-07-09T03:25:11;19.00;99.90
30648;DHT22;17683;53.360;9.736;2023-07-09T03:27:37;19.10;99.90
30648;DHT22;17683;53.360;9.736;2023-07-09T03:30:03;19.10;99.90
30648;DHT22;17683;53.360;9.736;2023-07-09T03:32:29;19.00;99.90
30648;DHT22;17683;53.360;9.736;2023-07-09T03:34:55;19.00;99.90
30648;DHT22;17683;53.360;9.736;2023-07-09T03:37:20;18.90;99.90
30648;DHT22;17683;53.360;9.736;2023-07-09T03:39:46;18.90;99.90
30648;DHT22;17683;53.360;9.736;2023-07-09T03:42:12;18.90;99.90
30648;DHT22;17683;53.360;9.736;2023-07-09T03:44:38;18.90;99.90
30648;DHT22;17683;53.360;9.736;2023-07-09T03:47:03;18.80;99.90
30648;DHT22;17683;53.360;9.736;2023-07-09T03:49:29;18.80;99.90
30648;DHT22;17683;53.360;9.736;2023-07-09T03:51:55;18.80;99.90
30648;DHT22;17683;53.360;9.736;2023-07-09T03:54:20;18.70;99.90
30648;DHT22;17683;53.360;9.736;2023-07-09T03:56:46;18.80;99.90
30648;DHT22;17683;53.360;9.736;2023-07-09T03:59:12;18.70;99.90
30648;DHT22;17683;53.360;9.736;2023-07-09T04:01:37;18.80;99.90
30648;DHT22;17683;53.360;9.736;2023-07-09T04:04:03;18.70;99.90
30648;DHT22;17683;53.360;9.736;2023-07-09T04:06:29;18.80;99.90
30648;DHT22;17683;53.360;9.736;2023-07-09T04:08:55;18.70;99.90
30648;DHT22;17683;53.360;9.736;2023-07-09T04:11:20;18.60;99.90
30648;DHT22;17683;53.360;9.736;2023-07-09T04:13:46;18.60;99.90
30648;DHT22;17683;53.360;9.736;2023-07-09T04:16:12;18.70;99.90
30648;DHT22;17683;53.360;9.736;2023-07-09T04:18:37;18.80;99.90
30648;DHT22;17683;53.360;9.736;2023-07-09T04:21:03;18.80;99.90
30648;DHT22;17683;53.360;9.736;2023-07-09T04:23:29;18.80;99.90
30648;DHT22;17683;53.360;9.736;2023-07-09T04:25:55;18.80;99.90
30648;DHT22;17683;53.360;9.736;2023-07-09T04:28:20;18.80;99.90
30648;DHT22;17683;53.360;9.736;2023-07-09T04:30:50;18.80;99.90
30648;DHT22;17683;53.360;9.736;2023-07-09T04:33:18;18.90;99.90
30648;DHT22;17683;53.360;9.736;2023-07-09T04:35:47;18.80;99.90
30648;DHT22;17683;53.360;9.736;2023-07-09T04:38:15;18.90;99.90
30648;DHT22;17683;53.360;9.736;2023-07-09T04:40:41;18.90;99.90
30648;DHT22;17683;53.360;9.736;2023-07-09T04:43:07;18.90;99.90
30648;DHT22;17683;53.360;9.736;2023-07-09T04:45:33;18.90;99.90
30648;DHT22;17683;53.360;9.736;2023-07-09T04:47:59;18.90;99.90
30648;DHT22;17683;53.360;9.736;2023-07-09T04:50:24;18.90;99.90
30648;DHT22;17683;53.360;9.736;2023-07-09T04:52:50;19.00;99.90
30648;DHT22;17683;53.360;9.736;2023-07-09T04:55:17;19.00;99.90
30648;DHT22;17683;53.360;9.736;2023-07-09T04:57:45;19.10;99.90
30648;DHT22;17683;53.360;9.736;2023-07-09T05:00:11;19.10;99.90
30648;DHT22;17683;53.360;9.736;2023-07-09T05:02:37;19.20;99.90
30648;DHT22;17683;53.360;9.736;2023-07-09T05:05:03;19.10;99.90
30648;DHT22;17683;53.360;9.736;2023-07-09T05:07:29;19.10;99.90
30648;DHT22;17683;53.360;9.736;2023-07-09T05:09:54;19.30;99.90
30648;DHT22;17683;53.360;9.736;2023-07-09T05:12:20;19.30;99.90
30648;DHT22;17683;53.360;9.736;2023-07-09T05:14:46;19.40;99.90
30648;DHT22;17683;53.360;9.736;2023-07-09T05:17:12;19.50;99.90
30648;DHT22;17683;53.360;9.736;2023-07-09T05:19:38;19.50;99.90
30648;DHT22;17683;53.360;9.736;2023-07-09T05:22:04;19.70;99.90
30648;DHT22;17683;53.360;9.736;2023-07-09T05:24:30;19.90;99.90
30648;DHT22;17683;53.360;9.736;2023-07-09T05:26:56;20.10;99.90
30648;DHT22;17683;53.360;9.736;2023-07-09T05:29:22;20.30;99.90
30648;DHT22;17683;53.360;9.736;2023-07-09T05:31:48;20.40;99.90
30648;DHT22;17683;53.360;9.736;2023-07-09T05:34:13;20.60;99.30
30648;DHT22;17683;53.360;9.736;2023-07-09T05:36:39;20.70;99.00
30648;DHT22;17683;53.360;9.736;2023-07-09T05:39:06;20.80;98.40
30648;DHT22;17683;53.360;9.736;2023-07-09T05:41:31;20.90;98.70
30648;DHT22;17683;53.360;9.736;2023-07-09T05:43:57;21.10;99.30
30648;DHT22;17683;53.360;9.736;2023-07-09T05:46:23;21.20;98.20
30648;DHT22;17683;53.360;9.736;2023-07-09T05:48:49;21.30;98.10
30648;DHT22;17683;53.360;9.736;2023-07-09T05:51:15;21.40;98.50
30648;DHT22;17683;53.360;9.736;2023-07-09T05:53:40;21.40;98.70
30648;DHT22;17683;53.360;9.736;2023-07-09T05:56:06;21.60;98.60
30648;DHT22;17683;53.360;9.736;2023-07-09T05:58:32;21.80;98.50
30648;DHT22;17683;53.360;9.736;2023-07-09T06:00:58;22.00;97.90
30648;DHT22;17683;53.360;9.736;2023-07-09T06:03:25;22.10;97.80
30648;DHT22;17683;53.360;9.736;2023-07-09T06:05:52;22.30;97.70
30648;DHT22;17683;53.360;9.736;2023-07-09T06:08:19;22.40;97.50
30648;DHT22;17683;53.360;9.736;2023-07-09T06:10:56;22.50;97.70
30648;DHT22;17683;53.360;9.736;2023-07-09T06:13:23;22.60;97.10
30648;DHT22;17683;53.360;9.736;2023-07-09T06:15:51;22.70;97.00
30648;DHT22;17683;53.360;9.736;2023-07-09T06:18:16;22.70;96.90
30648;DHT22;17683;53.360;9.736;2023-07-09T06:20:50;22.90;97.30
30648;DHT22;17683;53.360;9.736;2023-07-09T06:23:16;22.90;96.80
30648;DHT22;17683;53.360;9.736;2023-07-09T06:25:43;22.90;96.20
30648;DHT22;17683;53.360;9.736;2023-07-09T06:28:16;23.00;96.00
30648;DHT22;17683;53.360;9.736;2023-07-09T06:30:43;23.00;96.90
30648;DHT22;17683;53.360;9.736;2023-07-09T06:33:09;23.20;97.60
30648;DHT22;17683;53.360;9.736;2023-07-09T06:35:35;23.40;96.50
30648;DHT22;17683;53.360;9.736;2023-07-09T06:38:01;23.50;96.50
30648;DHT22;17683;53.360;9.736;2023-07-09T06:40:28;23.60;95.90
30648;DHT22;17683;53.360;9.736;2023-07-09T06:42:54;23.60;95.90
30648;DHT22;17683;53.360;9.736;2023-07-09T06:45:19;23.80;96.20
30648;DHT22;17683;53.360;9.736;2023-07-09T06:47:46;23.80;95.10
30648;DHT22;17683;53.360;9.736;2023-07-09T06:50:12;24.00;95.90
30648;DHT22;17683;53.360;9.736;2023-07-09T06:52:38;24.10;96.20
30648;DHT22;17683;53.360;9.736;2023-07-09T06:55:04;24.30;95.70
30648;DHT22;17683;53.360;9.736;2023-07-09T06:57:30;24.40;95.70
30648;DHT22;17683;53.360;9.736;2023-07-09T06:59:55;24.50;95.60
30648;DHT22;17683;53.360;9.736;2023-07-09T07:02:21;24.60;95.60
30648;DHT22;17683;53.360;9.736;2023-07-09T07:04:47;24.60;94.10
30648;DHT22;17683;53.360;9.736;2023-07-09T07:07:12;24.70;94.60
30648;DHT22;17683;53.360;9.736;2023-07-09T07:09:38;24.70;94.60
30648;DHT22;17683;53.360;9.736;2023-07-09T07:12:04;24.60;95.10
30648;DHT22;17683;53.360;9.736;2023-07-09T07:14:30;24.80;95.40
30648;DHT22;17683;53.360;9.736;2023-07-09T07:16:56;25.00;94.70
30648;DHT22;17683;53.360;9.736;2023-07-09T07:19:23;25.00;94.60
30648;DHT22;17683;53.360;9.736;2023-07-09T07:21:49;24.90;95.00
30648;DHT22;17683;53.360;9.736;2023-07-09T07:24:14;25.10;94.50
30648;DHT22;17683;53.360;9.736;2023-07-09T07:26:40;24.90;94.50
30648;DHT22;17683;53.360;9.736;2023-07-09T07:29:06;25.10;94.50
30648;DHT22;17683;53.360;9.736;2023-07-09T07:31:31;25.20;95.00
30648;DHT22;17683;53.360;9.736;2023-07-09T07:33:57;25.30;95.90
30648;DHT22;17683;53.360;9.736;2023-07-09T07:36:23;25.40;94.10
30648;DHT22;17683;53.360;9.736;2023-07-09T07:38:49;25.50;94.00
30648;DHT22;17683;53.360;9.736;2023-07-09T07:41:14;25.60;95.50
30648;DHT22;17683;53.360;9.736;2023-07-09T07:43:40;25.60;94.20
30648;DHT22;17683;53.360;9.736;2023-07-09T07:46:07;25.80;94.40
30648;DHT22;17683;53.360;9.736;2023-07-09T07:48:33;25.90;94.90
30648;DHT22;17683;53.360;9.736;2023-07-09T07:51:02;26.10;94.70
30648;DHT22;17683;53.360;9.736;2023-07-09T07:53:29;26.20;93.70
30648;DHT22;17683;53.360;9.736;2023-07-09T07:55:59;26.20;93.80
30648;DHT22;17683;53.360;9.736;2023-07-09T07:58:27;26.40;94.70
30648;DHT22;17683;53.360;9.736;2023-07-09T08:00:56;26.50;94.10
30648;DHT22;17683;53.360;9.736;2023-07-09T08:03:22;26.70;94.70
30648;DHT22;17683;53.360;9.736;2023-07-09T08:05:51;26.70;94.00
30648;DHT22;17683;53.360;9.736;2023-07-09T08:08:17;26.90;94.10
30648;DHT22;17683;53.360;9.736;2023-07-09T08:10:43;26.80;93.70
30648;DHT22;17683;53.360;9.736;2023-07-09T08:13:09;26.90;94.30
30648;DHT22;17683;53.360;9.736;2023-07-09T08:15:35;26.80;94.90
30648;DHT22;17683;53.360;9.736;2023-07-09T08:18:01;26.90;94.20
30648;DHT22;17683;53.360;9.736;2023-07-09T08:20:26;26.90;94.20
30648;DHT22;17683;53.360;9.736;2023-07-09T08:22:52;26.90;93.90
30648;DHT22;17683;53.360;9.736;2023-07-09T08:25:18;27.10;94.50
30648;DHT22;17683;53.360;9.736;2023-07-09T08:27:43;27.20;94.50
30648;DHT22;17683;53.360;9.736;2023-07-09T08:30:09;27.20;93.50
30648;DHT22;17683;53.360;9.736;2023-07-09T08:32:35;27.40;94.60
30648;DHT22;17683;53.360;9.736;2023-07-09T08:35:01;27.70;94.20
30648;DHT22;17683;53.360;9.736;2023-07-09T08:37:26;27.90;94.50
30648;DHT22;17683;53.360;9.736;2023-07-09T08:39:52;28.00;94.20
30648;DHT22;17683;53.360;9.736;2023-07-09T08:42:26;28.10;93.40
30648;DHT22;17683;53.360;9.736;2023-07-09T08:45:22;28.20;93.80
30648;DHT22;17683;53.360;9.736;2023-07-09T08:48:15;28.20;94.40
30648;DHT22;17683;53.360;9.736;2023-07-09T08:50:56;28.50;93.80
30648;DHT22;17683;53.360;9.736;2023-07-09T08:53:49;28.60;93.30
30648;DHT22;17683;53.360;9.736;2023-07-09T08:56:17;28.70;93.50
30648;DHT22;17683;53.360;9.736;2023-07-09T08:58:43;28.80;93.30
30648;DHT22;17683;53.360;9.736;2023-07-09T09:01:22;28.90;92.70
30648;DHT22;17683;53.360;9.736;2023-07-09T09:03:51;28.80;92.30
30648;DHT22;17683;53.360;9.736;2023-07-09T09:06:20;29.00;92.00
30648;DHT22;17683;53.360;9.736;2023-07-09T09:14:01;29.10;92.40
30648;DHT22;17683;53.360;9.736;2023-07-09T09:16:35;29.10;92.70
30648;DHT22;17683;53.360;9.736;2023-07-09T09:19:01;29.10;93.20
30648;DHT22;17683;53.360;9.736;2023-07-09T09:21:36;29.20;93.20
30648;DHT22;17683;53.360;9.736;2023-07-09T09:24:37;29.40;93.20
30648;DHT22;17683;53.360;9.736;2023-07-09T09:27:03;29.50;93.40
30648;DHT22;17683;53.360;9.736;2023-07-09T09:29:29;29.60;92.90
30648;DHT22;17683;53.360;9.736;2023-07-09T09:31:57;29.80;93.20
30648;DHT22;17683;53.360;9.736;2023-07-09T09:34:29;29.80;91.80
30648;DHT22;17683;53.360;9.736;2023-07-09T09:36:57;29.70;92.50
30648;DHT22;17683;53.360;9.736;2023-07-09T09:39:25;29.80;92.70
30648;DHT22;17683;53.360;9.736;2023-07-09T09:41:56;29.70;92.00
30648;DHT22;17683;53.360;9.736;2023-07-09T09:44:28;29.90;92.60
30648;DHT22;17683;53.360;9.736;2023-07-09T09:46:57;30.20;93.10
30648;DHT22;17683;53.360;9.736;2023-07-09T09:49:23;30.10;92.20
30648;DHT22;17683;53.360;9.736;2023-07-09T09:51:49;30.10;92.00
30648;DHT22;17683;53.360;9.736;2023-07-09T09:54:21;30.20;93.10
30648;DHT22;17683;53.360;9.736;2023-07-09T09:56:49;30.20;92.10
30648;DHT22;17683;53.360;9.736;2023-07-09T09:59:20;30.40;92.90
30648;DHT22;17683;53.360;9.736;2023-07-09T10:01:47;30.50;91.90
30648;DHT22;17683;53.360;9.736;2023-07-09T10:04:21;30.40;91.90
30648;DHT22;17683;53.360;9.736;2023-07-09T10:06:50;30.70;92.20
30648;DHT22;17683;53.360;9.736;2023-07-09T10:12:45;30.70;91.60
30648;DHT22;17683;53.360;9.736;2023-07-09T10:20:41;31.00;91.80
30648;DHT22;17683;53.360;9.736;2023-07-09T10:23:37;30.70;91.80
30648;DHT22;17683;53.360;9.736;2023-07-09T10:39:50;31.00;91.80
30648;DHT22;17683;53.360;9.736;2023-07-09T10:42:27;31.20;91.80
30648;DHT22;17683;53.360;9.736;2023-07-09T10:45:19;31.40;92.00
30648;DHT22;17683;53.360;9.736;2023-07-09T10:47:49;31.40;90.90
30648;DHT22;17683;53.360;9.736;2023-07-09T10:50:31;31.60;90.90
30648;DHT22;17683;53.360;9.736;2023-07-09T10:53:03;31.50;90.80
30648;DHT22;17683;53.360;9.736;2023-07-09T10:55:55;31.50;91.60
30648;DHT22;17683;53.360;9.736;2023-07-09T10:58:25;31.40;90.50
30648;DHT22;17683;53.360;9.736;2023-07-09T11:00:52;31.40;90.20
30648;DHT22;17683;53.360;9.736;2023-07-09T11:03:24;31.50;89.60
30648;DHT22;17683;53.360;9.736;2023-07-09T11:05:54;31.50;88.80
30648;DHT22;17683;53.360;9.736;2023-07-09T11:08:29;31.50;88.10
30648;DHT22;17683;53.360;9.736;2023-07-09T11:10:59;31.70;86.60
30648;DHT22;17683;53.360;9.736;2023-07-09T11:13:35;31.70;90.20
30648;DHT22;17683;53.360;9.736;2023-07-09T11:16:03;31.70;87.80
30648;DHT22;17683;53.360;9.736;2023-07-09T11:18:32;31.80;88.00
30648;DHT22;17683;53.360;9.736;2023-07-09T11:21:14;31.80;87.10
30648;DHT22;17683;53.360;9.736;2023-07-09T11:23:50;31.90;88.60
30648;DHT22;17683;53.360;9.736;2023-07-09T11:26:29;31.90;86.60
30648;DHT22;17683;53.360;9.736;2023-07-09T11:31:41;32.10;87.50
30648;DHT22;17683;53.360;9.736;2023-07-09T11:36:57;32.10;85.60
30648;DHT22;17683;53.360;9.736;2023-07-09T11:47:30;32.30;84.30
30648;DHT22;17683;53.360;9.736;2023-07-09T11:49:57;32.40;83.10
30648;DHT22;17683;53.360;9.736;2023-07-09T11:52:37;32.40;81.70
30648;DHT22;17683;53.360;9.736;2023-07-09T11:55:24;32.20;79.90
30648;DHT22;17683;53.360;9.736;2023-07-09T11:57:59;32.10;80.50
30648;DHT22;17683;53.360;9.736;2023-07-09T12:00:27;32.20;81.00
30648;DHT22;17683;53.360;9.736;2023-07-09T12:02:54;32.30;84.10
30648;DHT22;17683;53.360;9.736;2023-07-09T12:05:29;32.50;88.00
30648;DHT22;17683;53.360;9.736;2023-07-09T12:07:59;32.60;84.20
30648;DHT22;17683;53.360;9.736;2023-07-09T12:10:28;32.40;79.40
30648;DHT22;17683;53.360;9.736;2023-07-09T12:12:58;32.30;80.80
30648;DHT22;17683;53.360;9.736;2023-07-09T12:15:28;32.40;81.20
30648;DHT22;17683;53.360;9.736;2023-07-09T12:17:55;32.40;81.50
30648;DHT22;17683;53.360;9.736;2023-07-09T12:20:21;32.40;80.70
30648;DHT22;17683;53.360;9.736;2023-07-09T12:22:47;32.50;81.60
30648;DHT22;17683;53.360;9.736;2023-07-09T12:25:25;32.50;80.80
30648;DHT22;17683;53.360;9.736;2023-07-09T12:27:52;32.50;78.20
30648;DHT22;17683;53.360;9.736;2023-07-09T12:30:18;32.40;78.50
30648;DHT22;17683;53.360;9.736;2023-07-09T12:32:50;32.40;78.40
30648;DHT22;17683;53.360;9.736;2023-07-09T12:35:18;32.40;79.70
30648;DHT22;17683;53.360;9.736;2023-07-09T12:37:46;32.40;77.20
30648;DHT22;17683;53.360;9.736;2023-07-09T12:40:20;32.40;80.20
30648;DHT22;17683;53.360;9.736;2023-07-09T12:42:46;32.60;79.00
30648;DHT22;17683;53.360;9.736;2023-07-09T12:45:19;32.30;76.90
30648;DHT22;17683;53.360;9.736;2023-07-09T12:47:46;32.40;76.90
30648;DHT22;17683;53.360;9.736;2023-07-09T12:50:30;32.60;79.80
30648;DHT22;17683;53.360;9.736;2023-07-09T12:53:19;32.60;77.50
30648;DHT22;17683;53.360;9.736;2023-07-09T12:55:49;32.60;78.40
30648;DHT22;17683;53.360;9.736;2023-07-09T12:58:21;32.70;77.90
30648;DHT22;17683;53.360;9.736;2023-07-09T13:00:53;32.70;78.30
30648;DHT22;17683;53.360;9.736;2023-07-09T13:03:21;32.80;78.80
30648;DHT22;17683;53.360;9.736;2023-07-09T13:06:00;32.80;77.50
30648;DHT22;17683;53.360;9.736;2023-07-09T13:08:27;32.80;78.70
30648;DHT22;17683;53.360;9.736;2023-07-09T13:10:54;32.90;79.20
30648;DHT22;17683;53.360;9.736;2023-07-09T13:13:22;32.90;79.70
30648;DHT22;17683;53.360;9.736;2023-07-09T13:15:54;32.90;77.70
30648;DHT22;17683;53.360;9.736;2023-07-09T13:18:23;33.00;77.10
30648;DHT22;17683;53.360;9.736;2023-07-09T13:20:50;33.00;78.90
30648;DHT22;17683;53.360;9.736;2023-07-09T13:25:47;33.10;77.30
30648;DHT22;17683;53.360;9.736;2023-07-09T13:28:21;33.10;76.40
30648;DHT22;17683;53.360;9.736;2023-07-09T13:30:51;33.00;76.20
30648;DHT22;17683;53.360;9.736;2023-07-09T13:33:17;33.00;75.90
30648;DHT22;17683;53.360;9.736;2023-07-09T13:35:44;33.00;79.80
30648;DHT22;17683;53.360;9.736;2023-07-09T13:38:18;33.00;79.60
30648;DHT22;17683;53.360;9.736;2023-07-09T13:40:45;33.00;75.50
30648;DHT22;17683;53.360;9.736;2023-07-09T13:43:18;33.00;77.20
30648;DHT22;17683;53.360;9.736;2023-07-09T13:45:45;33.00;80.10
30648;DHT22;17683;53.360;9.736;2023-07-09T13:48:18;33.00;78.90
30648;DHT22;17683;53.360;9.736;2023-07-09T13:50:45;33.00;79.20
30648;DHT22;17683;53.360;9.736;2023-07-09T13:53:20;33.00;79.50
30648;DHT22;17683;53.360;9.736;2023-07-09T13:55:46;33.00;77.50
30648;DHT22;17683;53.360;9.736;2023-07-09T13:58:15;33.00;82.80
30648;DHT22;17683;53.360;9.736;2023-07-09T14:00:43;32.90;79.60
30648;DHT22;17683;53.360;9.736;2023-07-09T14:03:30;33.00;77.40
30648;DHT22;17683;53.360;9.736;2023-07-09T14:05:56;33.00;76.00
30648;DHT22;17683;53.360;9.736;2023-07-09T14:08:22;32.90;78.30
30648;DHT22;17683;53.360;9.736;2023-07-09T14:10:49;33.00;78.20
30648;DHT22;17683;53.360;9.736;2023-07-09T14:13:17;33.10;78.00
30648;DHT22;17683;53.360;9.736;2023-07-09T14:15:44;33.00;76.80
30648;DHT22;17683;53.360;9.736;2023-07-09T14:18:21;32.90;75.50
30648;DHT22;17683;53.360;9.736;2023-07-09T14:20:47;33.00;75.90
30648;DHT22;17683;53.360;9.736;2023-07-09T14:23:16;32.90;77.10
30648;DHT22;17683;53.360;9.736;2023-07-09T14:25:43;33.00;79.40
30648;DHT22;17683;53.360;9.736;2023-07-09T14:28:11;33.00;81.30
30648;DHT22;17683;53.360;9.736;2023-07-09T14:30:38;32.90;75.30
30648;DHT22;17683;53.360;9.736;2023-07-09T14:33:07;32.90;80.80
30648;DHT22;17683;53.360;9.736;2023-07-09T14:35:34;33.00;79.40
30648;DHT22;17683;53.360;9.736;2023-07-09T14:38:01;32.80;76.40
30648;DHT22;17683;53.360;9.736;2023-07-09T14:40:29;32.80;76.10
30648;DHT22;17683;53.360;9.736;2023-07-09T14:42:55;32.70;73.40
30648;DHT22;17683;53.360;9.736;2023-07-09T14:45:21;32.80;74.80
30648;DHT22;17683;53.360;9.736;2023-07-09T14:47:49;32.80;79.00
30648;DHT22;17683;53.360;9.736;2023-07-09T14:50:16;32.80;72.00
30648;DHT22;17683;53.360;9.736;2023-07-09T14:52:43;32.70;73.60
30648;DHT22;17683;53.360;9.736;2023-07-09T14:55:14;32.70;75.30
30648;DHT22;17683;53.360;9.736;2023-07-09T14:57:40;32.70;78.50
30648;DHT22;17683;53.360;9.736;2023-07-09T15:00:08;32.70;76.60
30648;DHT22;17683;53.360;9.736;2023-07-09T15:02:40;32.60;79.60
30648;DHT22;17683;53.360;9.736;2023-07-09T15:05:16;32.60;75.50
30648;DHT22;17683;53.360;9.736;2023-07-09T15:07:43;32.60;79.80
30648;DHT22;17683;53.360;9.736;2023-07-09T15:10:24;32.60;77.10
30648;DHT22;17683;53.360;9.736;2023-07-09T15:12:52;32.50;79.10
30648;DHT22;17683;53.360;9.736;2023-07-09T15:15:27;32.40;80.60
30648;DHT22;17683;53.360;9.736;2023-07-09T15:17:55;32.40;82.30
30648;DHT22;17683;53.360;9.736;2023-07-09T15:20:26;32.30;84.30
30648;DHT22;17683;53.360;9.736;2023-07-09T15:22:58;32.30;79.20
30648;DHT22;17683;53.360;9.736;2023-07-09T15:25:27;32.20;78.90
30648;DHT22;17683;53.360;9.736;2023-07-09T15:27:54;32.20;79.30
30648;DHT22;17683;53.360;9.736;2023-07-09T15:30:27;32.10;77.20
30648;DHT22;17683;53.360;9.736;2023-07-09T15:32:56;32.00;81.50
30648;DHT22;17683;53.360;9.736;2023-07-09T15:35:23;31.90;87.70
30648;DHT22;17683;53.360;9.736;2023-07-09T15:37:49;31.70;79.40
30648;DHT22;17683;53.360;9.736;2023-07-09T15:40:22;31.70;81.80
30648;DHT22;17683;53.360;9.736;2023-07-09T15:42:51;31.60;85.80
30648;DHT22;17683;53.360;9.736;2023-07-09T15:45:18;31.50;80.20
30648;DHT22;17683;53.360;9.736;2023-07-09T15:47:45;31.40;83.90
30648;DHT22;17683;53.360;9.736;2023-07-09T15:50:17;31.40;82.10
30648;DHT22;17683;53.360;9.736;2023-07-09T15:52:44;31.20;81.90
30648;DHT22;17683;53.360;9.736;2023-07-09T15:55:24;31.10;85.10
30648;DHT22;17683;53.360;9.736;2023-07-09T15:57:53;31.00;82.70
30648;DHT22;17683;53.360;9.736;2023-07-09T16:00:28;30.90;83.50
30648;DHT22;17683;53.360;9.736;2023-07-09T16:02:55;30.80;84.90
30648;DHT22;17683;53.360;9.736;2023-07-09T16:05:28;30.80;86.60
30648;DHT22;17683;53.360;9.736;2023-07-09T16:07:57;30.70;87.20
30648;DHT22;17683;53.360;9.736;2023-07-09T16:10:26;30.70;83.20
30648;DHT22;17683;53.360;9.736;2023-07-09T16:12:53;30.70;84.50
30648;DHT22;17683;53.360;9.736;2023-07-09T16:15:21;30.60;87.10
30648;DHT22;17683;53.360;9.736;2023-07-09T16:17:49;30.50;89.10
30648;DHT22;17683;53.360;9.736;2023-07-09T16:20:21;30.50;87.40
30648;DHT22;17683;53.360;9.736;2023-07-09T16:22:50;30.40;87.50
30648;DHT22;17683;53.360;9.736;2023-07-09T16:25:21;30.30;90.60
30648;DHT22;17683;53.360;9.736;2023-07-09T16:27:47;30.30;91.20
30648;DHT22;17683;53.360;9.736;2023-07-09T16:30:25;30.20;90.00